sensor_id;sensor_type;location;lat;lon;timestamp;noise_LAeq;noise_LA_min;noise_LA_max;noise_LA01;noise_LA95
49732;Laerm;43666;51.442;6.778;2024-02-04T00:00:31;37.09;28.67;40.43;;
49732;Laerm;43666;51.442;6.778;2024-02-04T00:02:57;36.98;31.33;40.13;;
49732;Laerm;43666;51.442;6.778;2024-02-04T00:05:22;37.06;30.89;40.33;;
49732;Laerm;43666;51.442;6.778;2024-02-04T00:07:48;37.12;31.68;40.33;;
49732;Laerm;43666;51.442;6.778;2024-02-04T00:10:14;37.09;30.89;40.23;;
49732;Laerm;43666;51.442;6.778;2024-02-04T00:12:41;37.13;28.67;40.43;;
49732;Laerm;43666;51.442;6.778;2024-02-04T00:15:09;37.10;30.89;40.23;;
49732;Laerm;43666;51.442;6.778;2024-02-04T00:17:36;37.19;31.68;40.43;;
49732;Laerm;43666;51.442;6.778;2024-02-04T00:20:03;37.22;29.92;40.43;;
49732;Laerm;43666;51.442;6.778;2024-02-04T00:22:32;37.22;29.92;41.06;;
49732;Laerm;43666;51.442;6.778;2024-02-04T00:24:59;37.17;29.92;40.62;;
49732;Laerm;43666;51.442;6.778;2024-02-04T00:27:31;37.17;29.57;40.43;;
49732;Laerm;43666;51.442;6.778;2024-02-04T00:29:58;37.12;28.67;40.13;;
49732;Laerm;43666;51.442;6.778;2024-02-04T00:32:25;37.23;28.67;40.43;;
49732;Laerm;43666;51.442;6.778;2024-02-04T00:34:52;37.17;30.89;40.53;;
49732;Laerm;43666;51.442;6.778;2024-02-04T00:37:18;37.84;30.89;41.14;;
49732;Laerm;43666;51.442;6.778;2024-02-04T00:39:44;37.62;30.89;41.22;;
49732;Laerm;43666;51.442;6.778;2024-02-04T00:42:11;37.48;29.92;40.80;;
49732;Laerm;43666;51.442;6.778;2024-02-04T00:44:36;37.03;30.89;40.23;;
49732;Laerm;43666;51.442;6.778;2024-02-04T00:47:02;37.14;30.89;40.18;;
49732;Laerm;43666;51.442;6.778;2024-02-04T00:49:28;37.21;30.89;40.23;;
49732;Laerm;43666;51.442;6.778;2024-02-04T00:51:54;37.12;30.89;40.53;;
49732;Laerm;43666;51.442;6.778;2024-02-04T00:54:19;37.43;29.57;40.62;;
49732;Laerm;43666;51.442;6.778;2024-02-04T00:56:45;37.42;28.67;40.71;;
49732;Laerm;43666;51.442;6.778;2024-02-04T00:59:11;37.43;30.89;40.80;;
49732;Laerm;43666;51.442;6.778;2024-02-04T01:01:38;37.57;31.68;40.80;;
49732;Laerm;43666;51.442;6.778;2024-02-04T01:04:04;37.37;31.68;41.03;;
49732;Laerm;43666;51.442;6.778;2024-02-04T01:06:30;37.42;29.92;40.80;;
49732;Laerm;43666;51.442;6.778;2024-02-04T01:08:56;37.53;31.68;40.98;;
49732;Laerm;43666;51.442;6.778;2024-02-04T01:11:24;37.12;28.67;40.23;;
49732;Laerm;43666;51.442;6.778;2024-02-04T01:13:51;36.92;28.67;40.43;;
49732;Laerm;43666;51.442;6.778;2024-02-04T01:16:19;37.02;29.92;40.43;;
49732;Laerm;43666;51.442;6.778;2024-02-04T01:18:44;37.01;26.91;40.89;;
49732;Laerm;43666;51.442;6.778;2024-02-04T01:21:10;37.14;29.57;40.53;;
49732;Laerm;43666;51.442;6.778;2024-02-04T01:23:37;37.20;30.89;40.89;;
49732;Laerm;43666;51.442;6.778;2024-02-04T01:26:03;36.57;29.92;40.03;;
49732;Laerm;43666;51.442;6.778;2024-02-04T01:28:30;36.51;28.32;39.92;;
49732;Laerm;43666;51.442;6.778;2024-02-04T01:30:55;36.45;26.91;39.89;;
49732;Laerm;43666;51.442;6.778;2024-02-04T01:33:21;36.71;30.89;41.06;;
49732;Laerm;43666;51.442;6.778;2024-02-04T01:35:47;36.71;29.57;40.53;;
49732;Laerm;43666;51.442;6.778;2024-02-04T01:38:14;36.76;28.67;40.71;;
49732;Laerm;43666;51.442;6.778;2024-02-04T01:40:40;36.59;23.90;41.22;;
49732;Laerm;43666;51.442;6.778;2024-02-04T01:43:06;36.52;26.91;40.23;;
49732;Laerm;43666;51.442;6.778;2024-02-04T01:45:34;36.42;28.67;39.70;;
49732;Laerm;43666;51.442;6.778;2024-02-04T01:48:00;36.44;29.92;39.58;;
49732;Laerm;43666;51.442;6.778;2024-02-04T01:50:27;36.42;23.90;43.19;;
49732;Laerm;43666;51.442;6.778;2024-02-04T01:52:53;36.43;28.67;39.92;;
49732;Laerm;43666;51.442;6.778;2024-02-04T01:55:18;36.39;29.92;39.34;;
49732;Laerm;43666;51.442;6.778;2024-02-04T01:57:44;36.32;28.67;39.34;;
49732;Laerm;43666;51.442;6.778;2024-02-04T02:00:13;36.53;26.91;40.03;;
49732;Laerm;43666;51.442;6.778;2024-02-04T02:02:39;36.38;28.67;40.03;;
49732;Laerm;43666;51.442;6.778;2024-02-04T02:05:06;36.31;29.92;40.33;;
49732;Laerm;43666;51.442;6.778;2024-02-04T02:07:32;36.32;23.90;39.70;;
49732;Laerm;43666;51.442;6.778;2024-02-04T02:09:58;36.29;28.67;40.03;;
49732;Laerm;43666;51.442;6.778;2024-02-04T02:12:30;36.35;26.91;39.92;;
49732;Laerm;43666;51.442;6.778;2024-02-04T02:15:10;36.44;28.67;40.03;;
49732;Laerm;43666;51.442;6.778;2024-02-04T02:17:47;36.36;26.91;40.03;;
49732;Laerm;43666;51.442;6.778;2024-02-04T02:20:18;36.37;23.90;39.81;;
49732;Laerm;43666;51.442;6.778;2024-02-04T02:22:48;36.38;26.91;40.08;;
49732;Laerm;43666;51.442;6.778;2024-02-04T02:25:14;36.38;23.90;40.13;;
49732;Laerm;43666;51.442;6.778;2024-02-04T02:27:51;36.37;28.67;39.92;;
49732;Laerm;43666;51.442;6.778;2024-02-04T02:30:17;36.37;28.67;40.13;;
49732;Laerm;43666;51.442;6.778;2024-02-04T02:32:47;36.34;26.91;40.23;;
49732;Laerm;43666;51.442;6.778;2024-02-04T02:35:14;36.33;26.91;39.58;;
49732;Laerm;43666;51.442;6.778;2024-02-04T02:37:43;36.33;28.67;40.53;;
49732;Laerm;43666;51.442;6.778;2024-02-04T02:40:13;36.34;23.90;39.81;;
49732;Laerm;43666;51.442;6.778;2024-02-04T02:42:45;36.31;28.32;41.30;;
49732;Laerm;43666;51.442;6.778;2024-02-04T02:45:12;36.33;29.92;40.53;;
49732;Laerm;43666;51.442;6.778;2024-02-04T02:47:39;36.32;26.91;39.92;;
49732;Laerm;43666;51.442;6.778;2024-02-04T02:50:06;36.38;26.91;39.34;;
49732;Laerm;43666;51.442;6.778;2024-02-04T02:52:33;36.36;28.67;40.03;;
49732;Laerm;43666;51.442;6.778;2024-02-04T02:54:59;36.33;28.67;39.70;;
49732;Laerm;43666;51.442;6.778;2024-02-04T02:57:24;36.34;26.91;39.58;;
49732;Laerm;43666;51.442;6.778;2024-02-04T02:59:50;36.43;26.91;39.58;;
49732;Laerm;43666;51.442;6.778;2024-02-04T03:02:16;36.43;28.67;40.03;;
49732;Laerm;43666;51.442;6.778;2024-02-04T03:04:42;36.54;26.91;40.03;;
49732;Laerm;43666;51.442;6.778;2024-02-04T03:07:09;36.40;28.67;39.70;;
49732;Laerm;43666;51.442;6.778;2024-02-04T03:09:35;36.41;29.92;40.33;;
49732;Laerm;43666;51.442;6.778;2024-02-04T03:12:01;36.39;26.91;39.81;;
49732;Laerm;43666;51.442;6.778;2024-02-04T03:14:27;36.40;23.90;39.46;;
49732;Laerm;43666;51.442;6.778;2024-02-04T03:16:52;36.41;26.91;39.46;;
49732;Laerm;43666;51.442;6.778;2024-02-04T03:19:18;36.50;26.91;39.81;;
49732;Laerm;43666;51.442;6.778;2024-02-04T03:21:44;36.50;26.91;40.23;;
49732;Laerm;43666;51.442;6.778;2024-02-04T03:24:10;36.73;29.92;40.43;;
49732;Laerm;43666;51.442;6.778;2024-02-04T03:26:35;36.58;29.57;39.92;;
49732;Laerm;43666;51.442;6.778;2024-02-04T03:29:01;36.57;28.67;40.03;;
49732;Laerm;43666;51.442;6.778;2024-02-04T03:31:30;36.55;29.57;39.70;;
49732;Laerm;43666;51.442;6.778;2024-02-04T03:33:56;36.95;28.67;40.53;;
49732;Laerm;43666;51.442;6.778;2024-02-04T03:36:23;37.06;29.92;40.62;;
49732;Laerm;43666;51.442;6.778;2024-02-04T03:38:50;36.84;29.92;40.03;;
49732;Laerm;43666;51.442;6.778;2024-02-04T03:41:16;36.85;28.67;40.03;;
49732;Laerm;43666;51.442;6.778;2024-02-04T03:43:41;36.79;28.67;39.92;;
49732;Laerm;43666;51.442;6.778;2024-02-04T03:46:08;37.10;29.92;40.36;;
49732;Laerm;43666;51.442;6.778;2024-02-04T03:48:34;36.99;28.67;40.23;;
49732;Laerm;43666;51.442;6.778;2024-02-04T03:51:01;36.96;29.92;40.53;;
49732;Laerm;43666;51.442;6.778;2024-02-04T03:53:27;36.85;29.57;40.03;;
49732;Laerm;43666;51.442;6.778;2024-02-04T03:55:52;36.94;29.92;40.43;;
49732;Laerm;43666;51.442;6.778;2024-02-04T03:58:19;37.13;30.89;40.53;;
49732;Laerm;43666;51.442;6.778;2024-02-04T04:00:46;37.04;28.67;40.89;;
49732;Laerm;43666;51.442;6.778;2024-02-04T04:03:11;37.39;30.89;40.89;;
49732;Laerm;43666;51.442;6.778;2024-02-04T04:05:37;36.90;29.92;40.33;;
49732;Laerm;43666;51.442;6.778;2024-02-04T04:08:03;37.41;31.68;41.68;;
49732;Laerm;43666;51.442;6.778;2024-02-04T04:10:29;37.29;29.92;40.45;;
49732;Laerm;43666;51.442;6.778;2024-02-04T04:12:55;37.60;30.89;41.22;;
49732;Laerm;43666;51.442;6.778;2024-02-04T04:15:21;37.70;29.92;41.30;;
49732;Laerm;43666;51.442;6.778;2024-02-04T04:17:46;37.73;29.92;41.14;;
49732;Laerm;43666;51.442;6.778;2024-02-04T04:20:13;38.01;30.89;41.46;;
49732;Laerm;43666;51.442;6.778;2024-02-04T04:22:39;37.88;30.89;40.98;;
49732;Laerm;43666;51.442;6.778;2024-02-04T04:25:06;37.51;31.68;41.30;;
49732;Laerm;43666;51.442;6.778;2024-02-04T04:27:32;37.79;28.67;42.03;;
49732;Laerm;43666;51.442;6.778;2024-02-04T04:29:57;37.57;30.89;42.29;;
49732;Laerm;43666;51.442;6.778;2024-02-04T04:32:23;37.73;29.92;41.61;;
49732;Laerm;43666;51.442;6.778;2024-02-04T04:34:49;37.62;29.92;42.03;;
49732;Laerm;43666;51.442;6.778;2024-02-04T04:37:16;37.83;29.92;41.89;;
49732;Laerm;43666;51.442;6.778;2024-02-04T04:39:44;37.60;26.91;41.68;;
49732;Laerm;43666;51.442;6.778;2024-02-04T04:42:10;37.27;29.92;41.14;;
49732;Laerm;43666;51.442;6.778;2024-02-04T04:44:36;37.35;30.89;41.22;;
49732;Laerm;43666;51.442;6.778;2024-02-04T04:47:02;37.17;29.92;40.23;;
49732;Laerm;43666;51.442;6.778;2024-02-04T04:49:28;37.17;31.68;40.33;;
49732;Laerm;43666;51.442;6.778;2024-02-04T04:51:54;37.21;28.67;40.43;;
49732;Laerm;43666;51.442;6.778;2024-02-04T04:54:20;37.20;29.92;40.03;;
49732;Laerm;43666;51.442;6.778;2024-02-04T04:56:46;37.27;30.89;40.23;;
49732;Laerm;43666;51.442;6.778;2024-02-04T04:59:14;37.18;29.92;40.43;;
49732;Laerm;43666;51.442;6.778;2024-02-04T05:01:47;37.15;29.92;41.06;;
49732;Laerm;43666;51.442;6.778;2024-02-04T05:04:16;37.29;30.89;40.53;;
49732;Laerm;43666;51.442;6.778;2024-02-04T05:06:42;37.19;29.92;40.33;;
49732;Laerm;43666;51.442;6.778;2024-02-04T05:09:09;37.14;30.89;40.53;;
49732;Laerm;43666;51.442;6.778;2024-02-04T05:11:34;37.06;29.92;40.03;;
49732;Laerm;43666;51.442;6.778;2024-02-04T05:14:01;37.06;30.89;40.98;;
49732;Laerm;43666;51.442;6.778;2024-02-04T05:16:27;37.04;30.89;40.13;;
49732;Laerm;43666;51.442;6.778;2024-02-04T05:18:53;37.29;29.92;41.22;;
49732;Laerm;43666;51.442;6.778;2024-02-04T05:21:19;37.10;28.67;40.53;;
49732;Laerm;43666;51.442;6.778;2024-02-04T05:23:46;37.09;28.67;40.33;;
49732;Laerm;43666;51.442;6.778;2024-02-04T05:26:12;37.25;29.92;40.98;;
49732;Laerm;43666;51.442;6.778;2024-02-04T05:28:38;37.35;29.92;40.54;;
49732;Laerm;43666;51.442;6.778;2024-02-04T05:31:04;37.25;29.92;41.22;;
49732;Laerm;43666;51.442;6.778;2024-02-04T05:33:30;37.38;31.68;41.75;;
49732;Laerm;43666;51.442;6.778;2024-02-04T05:35:55;37.36;30.89;41.30;;
49732;Laerm;43666;51.442;6.778;2024-02-04T05:38:21;37.36;31.68;40.89;;
49732;Laerm;43666;51.442;6.778;2024-02-04T05:40:48;37.46;30.89;40.80;;
49732;Laerm;43666;51.442;6.778;2024-02-04T05:43:14;37.40;28.67;40.89;;
49732;Laerm;43666;51.442;6.778;2024-02-04T05:45:40;37.27;31.68;42.71;;
49732;Laerm;43666;51.442;6.778;2024-02-04T05:48:07;37.35;30.89;41.14;;
49732;Laerm;43666;51.442;6.778;2024-02-04T05:50:33;37.18;29.57;40.23;;
49732;Laerm;43666;51.442;6.778;2024-02-04T05:52:58;37.23;30.89;41.06;;
49732;Laerm;43666;51.442;6.778;2024-02-04T05:55:24;37.20;29.92;40.71;;
49732;Laerm;43666;51.442;6.778;2024-02-04T05:57:51;37.12;30.89;40.33;;
49732;Laerm;43666;51.442;6.778;2024-02-04T06:00:17;37.12;31.68;40.23;;
49732;Laerm;43666;51.442;6.778;2024-02-04T06:02:43;37.28;30.89;40.98;;
49732;Laerm;43666;51.442;6.778;2024-02-04T06:05:09;37.21;31.68;40.80;;
49732;Laerm;43666;51.442;6.778;2024-02-04T06:07:35;37.20;29.92;40.53;;
49732;Laerm;43666;51.442;6.778;2024-02-04T06:10:01;37.46;31.68;40.89;;
49732;Laerm;43666;51.442;6.778;2024-02-04T06:12:34;37.20;30.89;40.89;;
49732;Laerm;43666;51.442;6.778;2024-02-04T06:14:59;37.10;30.89;40.53;;
49732;Laerm;43666;51.442;6.778;2024-02-04T06:17:25;37.03;30.89;40.33;;
49732;Laerm;43666;51.442;6.778;2024-02-04T06:19:51;36.94;29.92;40.03;;
49732;Laerm;43666;51.442;6.778;2024-02-04T06:22:17;37.08;30.89;40.13;;
49732;Laerm;43666;51.442;6.778;2024-02-04T06:24:43;37.16;29.92;40.43;;
49732;Laerm;43666;51.442;6.778;2024-02-04T06:27:08;37.08;30.89;40.23;;
49732;Laerm;43666;51.442;6.778;2024-02-04T06:29:36;37.12;29.92;40.33;;
49732;Laerm;43666;51.442;6.778;2024-02-04T06:32:02;37.13;31.68;40.13;;
49732;Laerm;43666;51.442;6.778;2024-02-04T06:34:29;37.17;29.92;40.80;;
49732;Laerm;43666;51.442;6.778;2024-02-04T06:36:54;37.23;28.67;40.53;;
49732;Laerm;43666;51.442;6.778;2024-02-04T06:39:20;37.25;31.68;40.98;;
49732;Laerm;43666;51.442;6.778;2024-02-04T06:41:46;37.16;30.89;40.18;;
49732;Laerm;43666;51.442;6.778;2024-02-04T06:44:11;37.14;29.92;40.43;;
49732;Laerm;43666;51.442;6.778;2024-02-04T06:46:37;37.19;30.54;40.13;;
49732;Laerm;43666;51.442;6.778;2024-02-04T06:49:03;37.20;28.67;40.33;;
49732;Laerm;43666;51.442;6.778;2024-02-04T06:51:28;37.18;31.68;40.62;;
49732;Laerm;43666;51.442;6.778;2024-02-04T06:53:54;37.15;31.68;40.62;;
49732;Laerm;43666;51.442;6.778;2024-02-04T06:56:20;37.17;28.67;40.53;;
49732;Laerm;43666;51.442;6.778;2024-02-04T06:58:46;37.45;30.89;41.38;;
49732;Laerm;43666;51.442;6.778;2024-02-04T07:01:12;37.34;29.92;40.98;;
49732;Laerm;43666;51.442;6.778;2024-02-04T07:03:39;37.35;29.57;41.30;;
49732;Laerm;43666;51.442;6.778;2024-02-04T07:06:05;37.42;31.68;40.89;;
49732;Laerm;43666;51.442;6.778;2024-02-04T07:08:30;37.35;31.68;41.06;;
49732;Laerm;43666;51.442;6.778;2024-02-04T07:10:56;37.45;30.89;41.14;;
49732;Laerm;43666;51.442;6.778;2024-02-04T07:13:22;37.47;29.92;41.30;;
49732;Laerm;43666;51.442;6.778;2024-02-04T07:15:48;37.62;31.68;41.82;;
49732;Laerm;43666;51.442;6.778;2024-02-04T07:18:14;37.64;31.68;41.68;;
49732;Laerm;43666;51.442;6.778;2024-02-04T07:20:43;37.58;31.68;40.98;;
49732;Laerm;43666;51.442;6.778;2024-02-04T07:23:09;37.36;31.68;40.98;;
49732;Laerm;43666;51.442;6.778;2024-02-04T07:25:34;37.63;28.67;40.98;;
49732;Laerm;43666;51.442;6.778;2024-02-04T07:28:00;37.56;29.92;41.22;;
49732;Laerm;43666;51.442;6.778;2024-02-04T07:30:26;37.38;30.89;41.14;;
49732;Laerm;43666;51.442;6.778;2024-02-04T07:32:52;37.51;30.89;40.80;;
49732;Laerm;43666;51.442;6.778;2024-02-04T07:35:18;37.71;29.92;41.06;;
49732;Laerm;43666;51.442;6.778;2024-02-04T07:37:44;37.52;31.68;40.53;;
49732;Laerm;43666;51.442;6.778;2024-02-04T07:40:10;37.43;28.67;40.71;;
49732;Laerm;43666;51.442;6.778;2024-02-04T07:42:35;37.25;30.89;41.61;;
49732;Laerm;43666;51.442;6.778;2024-02-04T07:45:02;37.33;31.68;42.41;;
49732;Laerm;43666;51.442;6.778;2024-02-04T07:47:34;37.38;29.92;40.62;;
49732;Laerm;43666;51.442;6.778;2024-02-04T07:49:59;37.55;29.92;40.80;;
49732;Laerm;43666;51.442;6.778;2024-02-04T07:52:25;37.61;29.92;40.71;;
49732;Laerm;43666;51.442;6.778;2024-02-04T07:54:50;37.69;30.89;40.53;;
49732;Laerm;43666;51.442;6.778;2024-02-04T07:57:16;37.91;32.00;41.89;;
49732;Laerm;43666;51.442;6.778;2024-02-04T07:59:43;38.26;32.35;41.61;;
49732;Laerm;43666;51.442;6.778;2024-02-04T08:02:09;37.88;31.68;41.61;;
49732;Laerm;43666;51.442;6.778;2024-02-04T08:04:35;37.84;28.67;41.38;;
49732;Laerm;43666;51.442;6.778;2024-02-04T08:07:01;37.92;30.89;41.14;;
49732;Laerm;43666;51.442;6.778;2024-02-04T08:09:27;37.85;31.68;41.06;;
49732;Laerm;43666;51.442;6.778;2024-02-04T08:11:53;37.84;32.35;40.89;;
49732;Laerm;43666;51.442;6.778;2024-02-04T08:14:19;37.87;31.68;40.89;;
49732;Laerm;43666;51.442;6.778;2024-02-04T08:16:45;37.58;31.68;40.89;;
49732;Laerm;43666;51.442;6.778;2024-02-04T08:19:13;37.49;32.00;40.62;;
49732;Laerm;43666;51.442;6.778;2024-02-04T08:21:39;37.42;30.89;40.63;;
49732;Laerm;43666;51.442;6.778;2024-02-04T08:24:05;36.50;28.67;39.81;;
49732;Laerm;43666;51.442;6.778;2024-02-04T08:26:32;36.91;29.92;41.82;;
49732;Laerm;43666;51.442;6.778;2024-02-04T08:28:58;36.54;29.92;40.33;;
49732;Laerm;43666;51.442;6.778;2024-02-04T08:31:23;36.41;29.92;39.78;;
49732;Laerm;43666;51.442;6.778;2024-02-04T08:33:49;36.39;26.91;39.70;;
49732;Laerm;43666;51.442;6.778;2024-02-04T08:36:15;36.39;26.91;40.23;;
49732;Laerm;43666;51.442;6.778;2024-02-04T08:38:42;36.39;28.67;39.46;;
49732;Laerm;43666;51.442;6.778;2024-02-04T08:41:08;36.49;29.92;39.81;;
49732;Laerm;43666;51.442;6.778;2024-02-04T08:43:34;36.40;29.92;39.70;;
49732;Laerm;43666;51.442;6.778;2024-02-04T08:45:59;36.41;28.67;39.70;;
49732;Laerm;43666;51.442;6.778;2024-02-04T08:48:25;36.40;28.67;39.81;;
49732;Laerm;43666;51.442;6.778;2024-02-04T08:50:51;36.42;23.90;39.81;;
49732;Laerm;43666;51.442;6.778;2024-02-04T08:53:20;36.44;29.92;40.23;;
49732;Laerm;43666;51.442;6.778;2024-02-04T08:55:46;36.51;29.57;39.92;;
49732;Laerm;43666;51.442;6.778;2024-02-04T08:58:12;36.39;26.91;40.23;;
49732;Laerm;43666;51.442;6.778;2024-02-04T09:00:39;36.34;26.91;39.70;;
49732;Laerm;43666;51.442;6.778;2024-02-04T09:03:04;36.26;28.67;39.81;;
49732;Laerm;43666;51.442;6.778;2024-02-04T09:05:30;36.23;28.67;41.68;;
49732;Laerm;43666;51.442;6.778;2024-02-04T09:07:56;36.23;26.91;39.92;;
49732;Laerm;43666;51.442;6.778;2024-02-04T09:10:21;36.28;26.91;39.92;;
49732;Laerm;43666;51.442;6.778;2024-02-04T09:12:47;36.27;23.90;39.81;;
49732;Laerm;43666;51.442;6.778;2024-02-04T09:15:14;36.34;26.91;40.71;;
49732;Laerm;43666;51.442;6.778;2024-02-04T09:17:39;36.52;29.92;39.89;;
49732;Laerm;43666;51.442;6.778;2024-02-04T09:20:05;37.08;26.91;40.62;;
49732;Laerm;43666;51.442;6.778;2024-02-04T09:22:31;37.37;29.92;40.54;;
49732;Laerm;43666;51.442;6.778;2024-02-04T09:24:57;37.64;30.89;40.98;;
49732;Laerm;43666;51.442;6.778;2024-02-04T09:27:23;37.62;28.67;41.14;;
49732;Laerm;43666;51.442;6.778;2024-02-04T09:29:49;37.42;28.67;41.14;;
49732;Laerm;43666;51.442;6.778;2024-02-04T09:32:24;37.16;30.89;40.62;;
49732;Laerm;43666;51.442;6.778;2024-02-04T09:34:50;37.14;31.33;40.33;;
49732;Laerm;43666;51.442;6.778;2024-02-04T09:37:16;37.23;29.92;40.62;;
49732;Laerm;43666;51.442;6.778;2024-02-04T09:39:42;37.32;29.92;41.22;;
49732;Laerm;43666;51.442;6.778;2024-02-04T09:42:07;37.12;29.92;41.46;;
49732;Laerm;43666;51.442;6.778;2024-02-04T09:44:33;37.21;31.68;40.89;;
49732;Laerm;43666;51.442;6.778;2024-02-04T09:47:02;37.20;31.68;40.43;;
49732;Laerm;43666;51.442;6.778;2024-02-04T09:49:28;37.30;31.68;43.09;;
49732;Laerm;43666;51.442;6.778;2024-02-04T09:51:56;37.42;30.54;41.06;;
49732;Laerm;43666;51.442;6.778;2024-02-04T09:54:26;37.33;29.92;40.80;;
49732;Laerm;43666;51.442;6.778;2024-02-04T09:56:53;37.24;29.92;41.30;;
49732;Laerm;43666;51.442;6.778;2024-02-04T09:59:20;37.21;29.57;40.53;;
49732;Laerm;43666;51.442;6.778;2024-02-04T10:01:46;37.28;30.89;41.22;;
49732;Laerm;43666;51.442;6.778;2024-02-04T10:04:16;37.26;28.67;41.30;;
49732;Laerm;43666;51.442;6.778;2024-02-04T10:06:44;37.33;30.89;41.75;;
49732;Laerm;43666;51.442;6.778;2024-02-04T10:09:11;37.30;28.67;40.89;;
49732;Laerm;43666;51.442;6.778;2024-02-04T10:11:38;37.19;30.89;40.89;;
49732;Laerm;43666;51.442;6.778;2024-02-04T10:14:05;37.21;29.92;40.62;;
49732;Laerm;43666;51.442;6.778;2024-02-04T10:16:35;37.11;28.67;40.23;;
49732;Laerm;43666;51.442;6.778;2024-02-04T10:19:01;37.25;28.67;40.62;;
49732;Laerm;43666;51.442;6.778;2024-02-04T10:21:28;37.17;30.54;40.89;;
49732;Laerm;43666;51.442;6.778;2024-02-04T10:23:56;37.14;30.89;41.06;;
49732;Laerm;43666;51.442;6.778;2024-02-04T10:26:22;37.11;31.68;40.62;;
49732;Laerm;43666;51.442;6.778;2024-02-04T10:28:50;37.17;31.68;40.62;;
49732;Laerm;43666;51.442;6.778;2024-02-04T10:31:16;37.25;29.57;41.22;;
49732;Laerm;43666;51.442;6.778;2024-02-04T10:33:42;37.21;30.89;40.71;;
49732;Laerm;43666;51.442;6.778;2024-02-04T10:36:07;37.17;30.89;41.68;;
49732;Laerm;43666;51.442;6.778;2024-02-04T10:38:34;37.25;31.68;41.14;;
49732;Laerm;43666;51.442;6.778;2024-02-04T10:41:01;37.44;31.68;41.68;;
49732;Laerm;43666;51.442;6.778;2024-02-04T10:43:36;37.41;29.92;40.62;;
49732;Laerm;43666;51.442;6.778;2024-02-04T10:46:10;37.37;26.91;41.14;;
49732;Laerm;43666;51.442;6.778;2024-02-04T10:48:42;37.43;29.92;41.53;;
49732;Laerm;43666;51.442;6.778;2024-02-04T10:51:13;37.33;29.92;40.33;;
49732;Laerm;43666;51.442;6.778;2024-02-04T10:53:41;37.38;30.89;41.61;;
49732;Laerm;43666;51.442;6.778;2024-02-04T10:56:07;37.39;31.68;42.19;;
49732;Laerm;43666;51.442;6.778;2024-02-04T10:58:38;37.43;31.68;40.62;;
49732;Laerm;43666;51.442;6.778;2024-02-04T11:01:04;37.30;31.68;40.53;;
49732;Laerm;43666;51.442;6.778;2024-02-04T11:03:31;37.34;30.89;40.62;;
49732;Laerm;43666;51.442;6.778;2024-02-04T11:05:58;37.35;30.89;41.53;;
49732;Laerm;43666;51.442;6.778;2024-02-04T11:08:25;37.44;29.92;41.55;;
49732;Laerm;43666;51.442;6.778;2024-02-04T11:10:51;37.39;30.89;41.30;;
49732;Laerm;43666;51.442;6.778;2024-02-04T11:13:18;37.37;31.68;41.75;;
49732;Laerm;43666;51.442;6.778;2024-02-04T11:15:45;37.30;31.68;46.52;;
49732;Laerm;43666;51.442;6.778;2024-02-04T11:18:30;37.25;30.89;40.43;;
49732;Laerm;43666;51.442;6.778;2024-02-04T11:25:54;37.27;26.91;40.33;;
49732;Laerm;43666;51.442;6.778;2024-02-04T11:28:22;37.32;29.92;40.13;;
49732;Laerm;43666;51.442;6.778;2024-02-04T11:30:52;37.72;28.67;41.14;;
49732;Laerm;43666;51.442;6.778;2024-02-04T11:33:19;37.69;30.89;41.06;;
49732;Laerm;43666;51.442;6.778;2024-02-04T11:35:45;37.92;31.68;41.06;;
49732;Laerm;43666;51.442;6.778;2024-02-04T11:38:17;37.90;32.35;41.14;;
49732;Laerm;43666;51.442;6.778;2024-02-04T11:40:43;37.76;30.89;41.06;;
49732;Laerm;43666;51.442;6.778;2024-02-04T11:43:10;37.79;31.68;41.22;;
49732;Laerm;43666;51.442;6.778;2024-02-04T11:45:37;37.72;31.68;40.53;;
49732;Laerm;43666;51.442;6.778;2024-02-04T11:48:06;37.88;30.89;40.98;;
49732;Laerm;43666;51.442;6.778;2024-02-04T11:50:32;37.65;29.92;40.71;;
49732;Laerm;43666;51.442;6.778;2024-02-04T11:53:09;37.63;31.68;41.06;;
49732;Laerm;43666;51.442;6.778;2024-02-04T11:55:36;37.71;29.92;41.14;;
49732;Laerm;43666;51.442;6.778;2024-02-04T11:58:10;37.78;32.35;40.71;;
49732;Laerm;43666;51.442;6.778;2024-02-04T12:00:37;37.75;31.68;40.89;;
49732;Laerm;43666;51.442;6.778;2024-02-04T12:03:04;37.75;32.35;41.06;;
49732;Laerm;43666;51.442;6.778;2024-02-04T12:05:35;37.66;31.68;40.62;;
49732;Laerm;43666;51.442;6.778;2024-02-04T12:08:03;37.49;30.89;40.80;;
49732;Laerm;43666;51.442;6.778;2024-02-04T12:10:29;37.67;29.92;40.62;;
49732;Laerm;43666;51.442;6.778;2024-02-04T12:12:58;37.62;31.68;40.62;;
49732;Laerm;43666;51.442;6.778;2024-02-04T12:15:24;37.59;28.67;41.22;;
49732;Laerm;43666;51.442;6.778;2024-02-04T12:17:51;37.53;29.92;40.43;;
49732;Laerm;43666;51.442;6.778;2024-02-04T12:20:18;37.52;30.89;40.62;;
49732;Laerm;43666;51.442;6.778;2024-02-04T12:22:45;37.53;26.91;40.80;;
49732;Laerm;43666;51.442;6.778;2024-02-04T12:25:14;37.62;32.35;40.80;;
49732;Laerm;43666;51.442;6.778;2024-02-04T12:27:43;37.74;31.68;41.46;;
49732;Laerm;43666;51.442;6.778;2024-02-04T12:30:14;37.60;31.33;40.80;;
49732;Laerm;43666;51.442;6.778;2024-02-04T12:32:41;37.58;30.89;40.71;;
49732;Laerm;43666;51.442;6.778;2024-02-04T12:35:07;37.42;30.89;40.53;;
49732;Laerm;43666;51.442;6.778;2024-02-04T12:37:37;37.51;29.92;40.62;;
49732;Laerm;43666;51.442;6.778;2024-02-04T12:40:05;37.43;32.35;40.54;;
49732;Laerm;43666;51.442;6.778;2024-02-04T12:42:36;37.48;30.89;40.53;;
49732;Laerm;43666;51.442;6.778;2024-02-04T12:45:02;37.46;32.35;40.62;;
49732;Laerm;43666;51.442;6.778;2024-02-04T12:47:29;37.55;31.68;41.19;;
49732;Laerm;43666;51.442;6.778;2024-02-04T12:49:57;37.66;30.89;40.80;;
49732;Laerm;43666;51.442;6.778;2024-02-04T12:52:24;37.74;29.92;40.71;;
49732;Laerm;43666;51.442;6.778;2024-02-04T12:54:51;37.63;32.35;40.71;;
49732;Laerm;43666;51.442;6.778;2024-02-04T12:57:23;37.69;30.89;40.71;;
49732;Laerm;43666;51.442;6.778;2024-02-04T13:00:03;37.79;31.68;41.06;;
49732;Laerm;43666;51.442;6.778;2024-02-04T13:02:33;37.60;31.68;40.98;;
49732;Laerm;43666;51.442;6.778;2024-02-04T13:05:02;37.60;31.68;40.80;;
49732;Laerm;43666;51.442;6.778;2024-02-04T13:07:28;37.50;30.89;40.98;;
49732;Laerm;43666;51.442;6.778;2024-02-04T13:10:00;37.79;29.92;41.30;;
49732;Laerm;43666;51.442;6.778;2024-02-04T13:12:26;37.57;32.35;40.96;;
49732;Laerm;43666;51.442;6.778;2024-02-04T13:14:52;37.49;31.68;40.62;;
49732;Laerm;43666;51.442;6.778;2024-02-04T13:17:20;37.48;30.89;40.71;;
49732;Laerm;43666;51.442;6.778;2024-02-04T13:19:50;37.50;30.89;40.80;;
49732;Laerm;43666;51.442;6.778;2024-02-04T13:22:24;37.48;31.68;41.61;;
49732;Laerm;43666;51.442;6.778;2024-02-04T13:24:59;37.44;28.67;44.39;;
49732;Laerm;43666;51.442;6.778;2024-02-04T13:27:25;37.47;26.91;40.71;;
49732;Laerm;43666;51.442;6.778;2024-02-04T13:29:51;37.48;31.68;40.53;;
49732;Laerm;43666;51.442;6.778;2024-02-04T13:32:18;37.50;31.68;43.86;;
49732;Laerm;43666;51.442;6.778;2024-02-04T13:34:44;37.54;30.89;41.14;;
49732;Laerm;43666;51.442;6.778;2024-02-04T13:37:10;37.60;31.33;41.46;;
49732;Laerm;43666;51.442;6.778;2024-02-04T13:39:36;37.56;23.90;40.98;;
49732;Laerm;43666;51.442;6.778;2024-02-04T13:42:02;37.50;29.92;40.53;;
49732;Laerm;43666;51.442;6.778;2024-02-04T13:44:28;37.53;30.89;41.22;;
49732;Laerm;43666;51.442;6.778;2024-02-04T13:46:54;37.58;28.67;40.53;;